Observations for LAMPEDUSA ISLAND, Italy (LICD)

LICD 191950Z 15011KT CAVOK 24/19 Q1018  
LICD 191850Z 15010KT CAVOK 24/19 Q1018  
LICD 191750Z 15009KT CAVOK 24/19 Q1017  
LICD 191650Z 15008KT CAVOK 24/19 Q1017  
LICD 191550Z 16007KT CAVOK 25/19 Q1017  
LICD 191450Z 17008KT CAVOK 25/20 Q1017  
LICD 191350Z 18009KT CAVOK 26/20 Q1017  
LICD 191250Z 18009KT CAVOK 26/20 Q1017  
LICD 191150Z 19010KT CAVOK 26/20 Q1017  
LICD 191050Z 19009KT CAVOK 26/20 Q1018  
LICD 190950Z 19009KT CAVOK 26/20 Q1018  
LICD 190850Z 19009KT 9999 FEW020 25/19 Q1018
LICD 190750Z 19008KT 9999 FEW020 25/19 Q1018
LICD 190650Z 18007KT 9999 FEW025 24/19 Q1018
LICD 190550Z 19006KT 9999 FEW025 23/19 Q1017
LICD 190450Z 19005KT 9999 FEW030 23/19 Q1017
LICD 190350Z AUTO 20005KT 160V220 9999 NCD 23/19 Q1017  
LICD 190250Z AUTO 20006KT 9999 NCD 23/19 Q1017  
LICD 190150Z AUTO 21006KT 9999 NCD 23/19 Q1017  
LICD 190050Z AUTO 19006KT 9999 NCD 23/19 Q1017  
LICD 182350Z AUTO 20005KT 9999 NCD 23/19 Q1017  
LICD 182250Z AUTO 19006KT 9999 FEW020/// 23/20 Q1017
LICD 182250Z AUTO 19006KT 9999 FEW020 23/20 Q1017
LICD 182150Z AUTO 20005KT 9999 FEW022/// 24/19 Q1017
LICD 182150Z AUTO 20005KT 9999 FEW022 24/19 Q1017
LICD 182050Z AUTO 20005KT 9999 FEW021/// 24/20 Q1018
LICD 182050Z AUTO 20005KT 9999 FEW021 24/20 Q1018
LICD 181950Z 23005KT 9999 FEW020 24/20 Q1018